Time;durP1;ratioP1;P1;durP2;ratioP2;P2;SDS_P1;SDS_P2;PMS_P1;PMS_P2;Temp;Humidity;BMP_temperature;BMP_pressure;BME280_temperature;BME280_humidity;BME280_pressure;Samples;Min_cycle;Max_cycle;Signal;HPM_P1;HPM_P2
2023/10/15 00:00:54;;;;;;;3.87;1.73;;;7.10;99.90;;;;;;6144710;23;20368;-75
2023/10/15 00:03:20;;;;;;;5.67;1.70;;;7.10;99.90;;;;;;6145648;23;20455;-75
2023/10/15 00:05:46;;;;;;;5.60;2.70;;;7.10;99.90;;;;;;6119789;23;20156;-74
2023/10/15 00:08:11;;;;;;;5.50;3.00;;;7.10;99.90;;;;;;6118711;23;20384;-75
2023/10/15 00:10:39;;;;;;;3.60;2.70;;;7.00;99.90;;;;;;6119198;23;20635;-75
2023/10/15 00:13:10;;;;;;;4.50;2.00;;;7.00;99.90;;;;;;6094898;23;20152;-75
2023/10/15 00:15:39;;;;;;;4.03;1.40;;;7.00;99.90;;;;;;6118849;23;20438;-75
2023/10/15 00:18:07;;;;;;;3.00;1.90;;;7.00;99.90;;;;;;6095462;23;20372;-75
2023/10/15 00:20:36;;;;;;;2.53;1.43;;;6.90;99.90;;;;;;6165957;23;20375;-73
2023/10/15 00:23:07;;;;;;;3.70;1.83;;;7.00;99.90;;;;;;6137410;23;20372;-75
2023/10/15 00:25:42;;;;;;;3.77;1.97;;;6.90;99.90;;;;;;6138543;23;20462;-75
2023/10/15 00:28:11;;;;;;;4.13;1.77;;;6.90;99.90;;;;;;6113940;23;20371;-75
2023/10/15 00:30:44;;;;;;;7.33;1.80;;;6.90;99.90;;;;;;6145830;23;20363;-77
2023/10/15 00:33:18;;;;;;;6.07;2.10;;;6.90;99.90;;;;;;6116947;23;20411;-74
2023/10/15 00:35:53;;;;;;;3.70;1.53;;;7.00;99.90;;;;;;6140620;23;20426;-76
2023/10/15 00:38:19;;;;;;;1.90;1.20;;;6.90;99.90;;;;;;6165126;23;20426;-74
2023/10/15 00:40:46;;;;;;;4.07;1.50;;;6.90;99.90;;;;;;6140626;23;20432;-76
2023/10/15 00:43:20;;;;;;;3.57;1.67;;;6.80;99.90;;;;;;6142203;23;20175;-75
2023/10/15 00:45:47;;;;;;;3.50;1.90;;;6.80;99.90;;;;;;6165375;23;20479;-75
2023/10/15 00:48:33;;;;;;;6.17;2.27;;;6.80;99.90;;;;;;6165099;23;20741;-75
2023/10/15 00:51:01;;;;;;;6.30;2.00;;;6.80;99.90;;;;;;6143137;23;20368;-74
2023/10/15 00:53:29;;;;;;;7.17;2.07;;;6.80;99.90;;;;;;6141089;23;20404;-75
2023/10/15 00:56:03;;;;;;;3.43;2.00;;;6.80;99.90;;;;;;6140917;23;20864;-76
2023/10/15 00:58:35;;;;;;;5.23;1.77;;;6.80;99.90;;;;;;6140610;23;20358;-76
2023/10/15 01:03:54;;;;;;;6.27;2.27;;;6.80;99.90;;;;;;6139444;23;20403;-74
2023/10/15 01:06:45;;;;;;;6.60;2.30;;;6.70;99.90;;;;;;6139275;23;20414;-75
2023/10/15 01:09:20;;;;;;;4.40;1.70;;;6.70;99.90;;;;;;6139473;23;20814;-74
2023/10/15 01:11:51;;;;;;;8.10;2.40;;;6.70;99.90;;;;;;6167444;23;20386;-73
2023/10/15 01:14:31;;;;;;;4.67;2.20;;;6.70;99.90;;;;;;6142316;23;20903;-74
2023/10/15 01:16:57;;;;;;;4.03;2.03;;;6.70;99.90;;;;;;6140469;23;20407;-74
2023/10/15 01:19:34;;;;;;;2.53;1.60;;;6.60;99.90;;;;;;6144327;23;20431;-74
2023/10/15 01:22:04;;;;;;;4.20;1.90;;;6.60;99.90;;;;;;6140660;23;20411;-74
2023/10/15 01:24:38;;;;;;;3.53;2.27;;;6.60;99.90;;;;;;6139201;23;20383;-74
2023/10/15 01:27:09;;;;;;;6.80;1.63;;;6.60;99.90;;;;;;6137748;23;20383;-74
2023/10/15 01:29:45;;;;;;;5.10;1.93;;;6.60;99.90;;;;;;6139216;23;20372;-75
2023/10/15 01:32:22;;;;;;;3.50;1.57;;;6.60;99.90;;;;;;6114327;23;20380;-74
2023/10/15 01:34:52;;;;;;;2.87;1.90;;;6.60;99.90;;;;;;6111796;23;20896;-74
2023/10/15 01:39:52;;;;;;;4.60;2.03;;;6.50;99.90;;;;;;6141753;23;20414;-75
2023/10/15 01:45:09;;;;;;;3.23;1.80;;;6.50;99.90;;;;;;6140532;23;20526;-74
2023/10/15 01:47:36;;;;;;;2.80;1.60;;;6.50;99.90;;;;;;6138625;23;20364;-73
2023/10/15 01:50:08;;;;;;;3.00;1.70;;;6.50;99.90;;;;;;6114111;23;20371;-73
2023/10/15 01:52:39;;;;;;;4.37;2.10;;;6.50;99.90;;;;;;6137946;23;20730;-72
2023/10/15 01:55:07;;;;;;;8.20;2.20;;;6.50;99.90;;;;;;6138948;23;20434;-73
2023/10/15 01:57:33;;;;;;;4.63;1.63;;;6.50;99.90;;;;;;6137509;23;20363;-72
2023/10/15 02:00:12;;;;;;;3.13;1.90;;;6.50;99.90;;;;;;6115759;23;20414;-74
2023/10/15 02:02:42;;;;;;;4.30;2.03;;;6.50;99.90;;;;;;6141150;23;20487;-75
2023/10/15 02:07:53;;;;;;;4.93;2.00;;;6.40;99.90;;;;;;6137517;23;20388;-74
2023/10/15 02:10:19;;;;;;;7.60;1.80;;;6.30;99.90;;;;;;6161685;23;20443;-75
2023/10/15 02:12:51;;;;;;;4.63;2.00;;;6.30;99.90;;;;;;6141625;23;20151;-73
2023/10/15 02:15:22;;;;;;;5.73;1.97;;;6.40;99.90;;;;;;6137278;23;20408;-74
2023/10/15 02:17:52;;;;;;;3.10;1.73;;;6.40;99.90;;;;;;6139553;23;20395;-74
2023/10/15 02:20:40;;;;;;;5.47;1.83;;;6.30;99.90;;;;;;6139734;23;20378;-73
2023/10/15 02:23:05;;;;;;;7.30;2.30;;;6.30;99.90;;;;;;6139294;23;20372;-73
2023/10/15 02:25:35;;;;;;;5.30;2.43;;;6.30;99.90;;;;;;6139922;23;20677;-74
2023/10/15 02:28:01;;;;;;;3.60;1.97;;;6.30;99.90;;;;;;6143037;23;20398;-76
2023/10/15 02:30:26;;;;;;;4.20;1.90;;;6.30;99.90;;;;;;6138452;23;20369;-74
2023/10/15 02:32:53;;;;;;;5.30;1.63;;;6.30;99.90;;;;;;6113094;23;20211;-74
2023/10/15 02:35:24;;;;;;;5.00;2.13;;;6.30;99.90;;;;;;6139007;23;20170;-74
2023/10/15 02:37:49;;;;;;;4.27;2.60;;;6.30;99.90;;;;;;6138958;23;20357;-73
2023/10/15 02:40:18;;;;;;;9.37;2.50;;;6.40;99.90;;;;;;6138279;23;20670;-74
2023/10/15 02:42:52;;;;;;;5.40;1.70;;;6.30;99.90;;;;;;6139122;23;20136;-76
2023/10/15 02:45:23;;;;;;;5.17;2.30;;;6.30;99.90;;;;;;6137907;23;20371;-75
2023/10/15 02:47:49;;;;;;;12.50;2.63;;;6.40;99.90;;;;;;6162018;23;20801;-74
2023/10/15 02:50:23;;;;;;;7.67;1.97;;;6.40;99.90;;;;;;6139197;23;20411;-75
2023/10/15 02:52:48;;;;;;;6.93;1.80;;;6.50;99.90;;;;;;6139563;23;20136;-75
2023/10/15 02:55:14;;;;;;;4.67;2.30;;;6.50;99.90;;;;;;6137795;23;20431;-75
2023/10/15 02:57:42;;;;;;;8.30;2.50;;;6.60;99.90;;;;;;6137736;23;20156;-74
2023/10/15 03:00:18;;;;;;;5.13;2.47;;;6.60;99.90;;;;;;6138219;23;20384;-73
2023/10/15 03:02:45;;;;;;;9.87;2.60;;;6.60;99.90;;;;;;6136292;23;20640;-73
2023/10/15 03:05:25;;;;;;;5.97;1.97;;;6.70;99.90;;;;;;6114031;23;20837;-74
2023/10/15 03:07:51;;;;;;;2.50;1.67;;;6.80;99.90;;;;;;6137570;23;20773;-73
2023/10/15 03:10:21;;;;;;;2.37;1.67;;;6.80;99.90;;;;;;6140334;23;20383;-74
2023/10/15 03:12:50;;;;;;;3.33;2.20;;;6.90;99.90;;;;;;6137671;23;20144;-74
2023/10/15 03:15:17;;;;;;;5.03;2.00;;;6.90;99.90;;;;;;6138211;23;20424;-74
2023/10/15 03:17:44;;;;;;;4.90;1.90;;;7.00;99.90;;;;;;6112289;23;20387;-74
2023/10/15 03:20:24;;;;;;;7.53;3.13;;;7.00;99.90;;;;;;6160499;23;20403;-74
2023/10/15 03:22:52;;;;;;;6.50;3.13;;;7.00;99.90;;;;;;6115666;23;20379;-73
2023/10/15 03:25:20;;;;;;;8.93;2.90;;;7.10;99.90;;;;;;6138636;23;20370;-75
2023/10/15 03:27:46;;;;;;;6.60;2.63;;;7.10;99.90;;;;;;6137664;23;20407;-76
2023/10/15 03:30:13;;;;;;;6.40;3.23;;;7.10;99.90;;;;;;6137619;23;20785;-73
2023/10/15 03:32:41;;;;;;;4.83;2.73;;;7.20;99.90;;;;;;6160371;23;20155;-73
2023/10/15 03:35:17;;;;;;;7.90;2.70;;;7.20;99.90;;;;;;6160122;23;20451;-74
2023/10/15 03:37:47;;;;;;;7.30;2.80;;;7.30;99.90;;;;;;6135542;23;20359;-72
2023/10/15 03:40:30;;;;;;;4.60;1.90;;;7.30;99.90;;;;;;6111207;23;20432;-73
2023/10/15 03:43:01;;;;;;;3.30;1.93;;;7.40;99.90;;;;;;6136719;23;20364;-75
2023/10/15 03:45:28;;;;;;;4.03;2.33;;;7.50;99.90;;;;;;6136823;23;20383;-73
2023/10/15 03:47:54;;;;;;;6.63;2.50;;;7.50;99.90;;;;;;6140078;23;20770;-74
2023/10/15 03:50:20;;;;;;;3.63;2.20;;;7.50;99.90;;;;;;6136720;23;20383;-74
2023/10/15 03:52:45;;;;;;;3.27;1.77;;;7.60;99.90;;;;;;6137715;23;20136;-73
2023/10/15 03:55:11;;;;;;;2.80;1.60;;;7.60;99.90;;;;;;6138591;23;20512;-74
2023/10/15 03:57:37;;;;;;;3.43;2.10;;;7.60;99.90;;;;;;6135800;23;20156;-73
2023/10/15 04:03:18;;;;;;;3.80;2.03;;;7.70;99.90;;;;;;6103359;23;20223;-73
2023/10/15 04:06:01;;;;;;;2.83;1.50;;;7.70;99.90;;;;;;6133729;23;20396;-73
2023/10/15 04:08:31;;;;;;;4.13;2.20;;;7.70;99.90;;;;;;6135552;23;20363;-74
2023/10/15 04:11:00;;;;;;;4.50;2.53;;;7.70;99.90;;;;;;6135757;23;20380;-74
2023/10/15 04:13:26;;;;;;;6.03;2.30;;;7.70;99.90;;;;;;6136820;23;20487;-74
2023/10/15 04:15:54;;;;;;;8.87;3.07;;;7.70;99.90;;;;;;6133865;23;20478;-73
2023/10/15 04:18:24;;;;;;;6.47;2.43;;;7.80;99.90;;;;;;6134536;23;20361;-73
2023/10/15 04:20:55;;;;;;;10.90;3.33;;;7.80;99.90;;;;;;6135718;23;20825;-76
2023/10/15 04:23:34;;;;;;;5.93;2.83;;;7.90;99.90;;;;;;6133878;23;20399;-74
2023/10/15 04:26:11;;;;;;;5.47;2.50;;;8.00;99.90;;;;;;6135660;23;20788;-75
2023/10/15 04:28:41;;;;;;;4.63;2.37;;;8.00;99.90;;;;;;6133796;23;20393;-74
2023/10/15 04:31:12;;;;;;;6.17;2.10;;;8.00;99.90;;;;;;6110996;23;20407;-74
2023/10/15 04:33:41;;;;;;;4.70;1.80;;;8.00;99.90;;;;;;6136684;23;20392;-75
2023/10/15 04:36:10;;;;;;;5.03;2.10;;;8.00;99.90;;;;;;6138569;23;20430;-74
2023/10/15 04:38:38;;;;;;;4.93;2.30;;;8.00;99.90;;;;;;6137384;23;20698;-73
2023/10/15 04:41:04;;;;;;;4.10;2.30;;;8.00;99.90;;;;;;6136187;23;20434;-74
2023/10/15 04:43:41;;;;;;;4.40;2.10;;;8.00;99.90;;;;;;6137333;23;20404;-74
2023/10/15 04:46:17;;;;;;;6.47;2.77;;;8.00;99.90;;;;;;6136338;23;20144;-74
2023/10/15 04:48:47;;;;;;;8.27;2.73;;;8.00;99.90;;;;;;6137115;23;20371;-76
2023/10/15 04:51:13;;;;;;;4.90;2.40;;;8.00;99.90;;;;;;6090549;23;20474;-74
2023/10/15 04:53:48;;;;;;;4.13;2.40;;;8.10;99.90;;;;;;6139473;23;20395;-73
2023/10/15 04:56:14;;;;;;;6.57;2.50;;;8.00;99.90;;;;;;6138204;23;20446;-75
2023/10/15 04:58:40;;;;;;;4.57;2.70;;;8.00;99.90;;;;;;6134604;23;20773;-72
2023/10/15 05:01:07;;;;;;;9.83;2.50;;;8.00;99.90;;;;;;6109363;23;20364;-75
2023/10/15 05:03:36;;;;;;;5.33;2.10;;;8.00;99.90;;;;;;6135793;23;20163;-75
2023/10/15 05:06:06;;;;;;;10.03;2.80;;;8.00;99.90;;;;;;6133740;23;20391;-74
2023/10/15 05:08:34;;;;;;;7.53;2.30;;;8.00;99.90;;;;;;6134990;23;20364;-72
2023/10/15 05:11:00;;;;;;;8.13;2.40;;;8.00;99.90;;;;;;6159046;23;20384;-73
2023/10/15 05:13:26;;;;;;;3.70;2.70;;;8.00;99.90;;;;;;6135871;23;20420;-72
2023/10/15 05:15:52;;;;;;;7.90;3.10;;;8.00;99.90;;;;;;6135827;23;20169;-73
2023/10/15 05:18:18;;;;;;;5.20;2.03;;;7.90;99.90;;;;;;6136609;23;20375;-72
2023/10/15 05:20:49;;;;;;;4.70;2.73;;;7.90;99.90;;;;;;6111284;23;20708;-75
2023/10/15 05:23:15;;;;;;;7.07;2.87;;;7.80;99.90;;;;;;6136904;23;20410;-74
2023/10/15 05:25:41;;;;;;;5.70;2.97;;;7.80;99.90;;;;;;6109823;23;20677;-74
2023/10/15 05:28:07;;;;;;;4.93;2.53;;;7.80;99.90;;;;;;6135025;23;20364;-73
2023/10/15 05:30:33;;;;;;;4.10;2.10;;;7.80;99.90;;;;;;6109818;23;20164;-73
2023/10/15 05:33:00;;;;;;;3.00;1.53;;;7.80;99.90;;;;;;6136360;23;20360;-72
2023/10/15 05:35:27;;;;;;;4.90;2.00;;;7.70;99.90;;;;;;6157485;23;20419;-74
2023/10/15 05:37:54;;;;;;;6.30;2.07;;;7.60;99.90;;;;;;6111138;23;20382;-74
2023/10/15 05:40:21;;;;;;;7.90;2.30;;;7.60;99.90;;;;;;6135799;23;20515;-73
2023/10/15 05:42:47;;;;;;;3.87;2.20;;;7.50;99.90;;;;;;6160704;23;20379;-75
2023/10/15 05:45:14;;;;;;;5.77;2.43;;;7.50;99.90;;;;;;6112197;23;20399;-74
2023/10/15 05:47:44;;;;;;;4.33;2.63;;;7.60;99.90;;;;;;6135251;23;20444;-74
2023/10/15 05:50:12;;;;;;;6.90;2.60;;;7.60;99.90;;;;;;6140069;23;20379;-73
2023/10/15 05:52:38;;;;;;;77.70;20.67;;;7.70;99.90;;;;;;6135888;23;20360;-73
2023/10/15 05:55:05;;;;;;;61.37;14.90;;;7.70;99.90;;;;;;6136648;23;20419;-72
2023/10/15 05:57:31;;;;;;;88.10;23.73;;;7.70;99.90;;;;;;6135084;23;20372;-75
2023/10/15 05:59:57;;;;;;;28.60;6.93;;;7.70;99.90;;;;;;6135328;23;20446;-73
2023/10/15 06:02:23;;;;;;;10.87;2.93;;;7.70;99.90;;;;;;6136210;23;20144;-73
2023/10/15 06:04:49;;;;;;;7.10;2.23;;;7.70;99.90;;;;;;6136530;23;20179;-76
2023/10/15 06:07:15;;;;;;;4.80;1.93;;;7.70;99.90;;;;;;6135966;23;20434;-73
2023/10/15 06:09:44;;;;;;;5.20;1.90;;;7.80;99.90;;;;;;6136444;23;20474;-74
2023/10/15 06:12:10;;;;;;;6.17;2.30;;;7.80;99.90;;;;;;6135338;23;20414;-73
2023/10/15 06:14:36;;;;;;;5.17;2.40;;;7.70;99.90;;;;;;6135283;23;20427;-73
2023/10/15 06:17:02;;;;;;;43.13;7.47;;;7.60;99.90;;;;;;6111411;23;20439;-73
2023/10/15 06:19:30;;;;;;;42.57;9.30;;;7.50;99.90;;;;;;6111368;23;20148;-74
2023/10/15 06:21:56;;;;;;;7.53;3.33;;;7.50;99.90;;;;;;6111024;23;20209;-73
2023/10/15 06:24:21;;;;;;;4.97;2.43;;;7.40;99.90;;;;;;6141516;23;20395;-74
2023/10/15 06:26:48;;;;;;;11.47;2.60;;;7.40;99.90;;;;;;6121847;23;20406;-74
2023/10/15 06:29:15;;;;;;;6.37;2.80;;;7.40;99.90;;;;;;6146931;23;20144;-73
2023/10/15 06:31:40;;;;;;;6.00;2.17;;;7.40;99.90;;;;;;6145433;23;20375;-74
2023/10/15 06:34:07;;;;;;;4.80;2.17;;;7.40;99.90;;;;;;6138369;23;20411;-73
2023/10/15 06:36:34;;;;;;;3.67;2.57;;;7.40;99.90;;;;;;6148525;23;20174;-74
2023/10/15 06:39:03;;;;;;;5.27;2.23;;;7.40;99.90;;;;;;6140343;23;20455;-75
2023/10/15 06:41:28;;;;;;;7.30;2.70;;;7.40;99.90;;;;;;6163099;23;20435;-75
2023/10/15 06:43:54;;;;;;;4.80;2.50;;;7.50;99.90;;;;;;6136968;23;20462;-73
2023/10/15 06:46:23;;;;;;;11.20;4.43;;;7.50;99.90;;;;;;6138673;23;20147;-74
2023/10/15 06:48:48;;;;;;;6.40;2.63;;;7.50;99.90;;;;;;6137856;23;20188;-73
2023/10/15 06:51:17;;;;;;;6.40;2.37;;;7.50;99.90;;;;;;6138118;23;20388;-73
2023/10/15 06:53:43;;;;;;;5.33;3.00;;;7.50;99.90;;;;;;6138519;23;20454;-73
2023/10/15 06:56:09;;;;;;;5.50;3.47;;;7.50;99.90;;;;;;6136541;23;20408;-72
2023/10/15 06:58:35;;;;;;;4.33;2.47;;;7.50;99.90;;;;;;6140737;23;20147;-74
2023/10/15 07:01:04;;;;;;;4.13;2.53;;;7.50;99.90;;;;;;6141044;23;20379;-76
2023/10/15 07:03:30;;;;;;;4.23;2.40;;;7.50;99.90;;;;;;6137621;23;20202;-74
2023/10/15 07:05:56;;;;;;;4.63;2.73;;;7.50;99.90;;;;;;6141562;23;20368;-74
2023/10/15 07:08:22;;;;;;;4.40;2.23;;;7.40;99.90;;;;;;6141048;23;20372;-74
2023/10/15 07:10:49;;;;;;;6.63;4.00;;;7.50;99.90;;;;;;6116398;23;20430;-73
2023/10/15 07:13:17;;;;;;;2.37;2.13;;;7.50;99.90;;;;;;6139129;23;20211;-74
2023/10/15 07:15:45;;;;;;;3.23;2.20;;;7.70;99.90;;;;;;6140457;23;20418;-73
2023/10/15 07:18:12;;;;;;;5.90;2.37;;;7.80;99.90;;;;;;6161873;23;20370;-73
2023/10/15 07:20:39;;;;;;;2.50;2.30;;;7.90;99.90;;;;;;6115114;23;20391;-74
2023/10/15 07:23:04;;;;;;;4.07;1.90;;;8.00;99.90;;;;;;6138816;23;20367;-74
2023/10/15 07:25:32;;;;;;;31.93;7.70;;;8.10;99.90;;;;;;6136712;23;20399;-74
2023/10/15 07:27:59;;;;;;;14.93;3.70;;;8.20;99.90;;;;;;6139141;23;20414;-75
2023/10/15 07:30:26;;;;;;;27.30;7.07;;;8.20;99.90;;;;;;6116177;23;20376;-73
2023/10/15 07:32:57;;;;;;;6.40;3.20;;;8.30;99.90;;;;;;6139688;23;20364;-74
2023/10/15 07:35:27;;;;;;;3.70;2.93;;;8.30;99.90;;;;;;6138125;23;20400;-74
2023/10/15 07:37:53;;;;;;;13.23;3.40;;;8.30;99.90;;;;;;6139902;23;20356;-73
2023/10/15 07:40:22;;;;;;;6.80;3.37;;;8.30;99.90;;;;;;6141116;23;20466;-74
2023/10/15 07:42:50;;;;;;;2.67;2.30;;;8.30;99.90;;;;;;6116285;23;20144;-73
2023/10/15 07:45:17;;;;;;;5.13;2.53;;;8.40;99.90;;;;;;6140088;23;20410;-72
2023/10/15 07:47:45;;;;;;;3.80;2.17;;;8.50;99.90;;;;;;6083887;23;20389;-73
2023/10/15 07:50:18;;;;;;;2.90;1.97;;;8.60;99.90;;;;;;6109288;23;20384;-75
2023/10/15 07:52:46;;;;;;;4.93;2.20;;;8.60;99.90;;;;;;6107235;23;20381;-74
2023/10/15 07:55:18;;;;;;;3.30;2.30;;;8.70;99.90;;;;;;6085045;23;20432;-75
2023/10/15 07:57:46;;;;;;;3.53;1.87;;;8.80;99.90;;;;;;6087360;23;20463;-73
2023/10/15 08:00:16;;;;;;;4.57;2.77;;;8.90;99.90;;;;;;6109720;23;20400;-74
2023/10/15 08:02:45;;;;;;;2.30;2.00;;;9.00;99.90;;;;;;6086672;23;20373;-76
2023/10/15 08:05:12;;;;;;;4.60;2.30;;;9.10;99.90;;;;;;6109622;23;20391;-74
2023/10/15 08:07:41;;;;;;;7.93;3.10;;;9.10;99.90;;;;;;6110710;23;20368;-75
2023/10/15 08:10:08;;;;;;;3.83;2.57;;;9.10;99.90;;;;;;6111577;23;20919;-75
2023/10/15 08:12:34;;;;;;;2.60;2.30;;;9.10;99.90;;;;;;6084973;23;20389;-73
2023/10/15 08:15:00;;;;;;;4.93;2.77;;;9.00;99.90;;;;;;6108561;23;20432;-76
2023/10/15 08:17:29;;;;;;;7.10;3.60;;;9.00;99.90;;;;;;6085921;23;20422;-75
2023/10/15 08:19:55;;;;;;;5.10;2.37;;;9.10;99.90;;;;;;6111782;23;20137;-75
2023/10/15 08:22:22;;;;;;;5.93;3.50;;;9.10;99.90;;;;;;6113219;23;20371;-75
2023/10/15 08:24:48;;;;;;;3.00;2.43;;;9.20;99.90;;;;;;6097331;23;20424;-73
2023/10/15 08:27:14;;;;;;;4.30;3.00;;;9.30;99.90;;;;;;6115979;23;20419;-73
2023/10/15 08:29:44;;;;;;;5.30;2.73;;;9.30;99.90;;;;;;6141242;23;20618;-75
2023/10/15 08:32:16;;;;;;;4.40;2.60;;;9.30;99.90;;;;;;6115900;23;20163;-75
2023/10/15 08:34:44;;;;;;;4.67;2.67;;;9.30;99.90;;;;;;6166591;23;20418;-73
2023/10/15 08:37:10;;;;;;;5.57;3.60;;;9.20;99.90;;;;;;6118422;23;20376;-74
2023/10/15 08:39:38;;;;;;;7.13;3.60;;;9.20;99.90;;;;;;6141836;23;20391;-74
2023/10/15 08:42:13;;;;;;;6.27;3.00;;;9.10;99.90;;;;;;6141607;23;20785;-75
2023/10/15 08:44:43;;;;;;;4.67;3.33;;;9.10;99.90;;;;;;6118023;23;20386;-74
2023/10/15 08:47:13;;;;;;;6.90;3.33;;;9.10;99.90;;;;;;6117983;23;20380;-74
2023/10/15 08:49:51;;;;;;;3.50;3.03;;;9.20;99.90;;;;;;6141896;23;20477;-76
2023/10/15 08:52:20;;;;;;;5.90;3.17;;;9.30;99.90;;;;;;6140406;23;20394;-74
2023/10/15 08:54:50;;;;;;;6.63;4.10;;;9.40;99.90;;;;;;6119810;23;20457;-77
2023/10/15 08:57:16;;;;;;;4.23;2.67;;;9.40;99.90;;;;;;6095425;23;20384;-74
2023/10/15 08:59:45;;;;;;;4.87;3.00;;;9.50;99.90;;;;;;6143860;23;20375;-75
2023/10/15 09:02:11;;;;;;;6.83;3.30;;;9.60;99.90;;;;;;6143673;23;20360;-76
2023/10/15 09:04:36;;;;;;;3.70;2.10;;;9.60;99.90;;;;;;6121470;23;20395;-75
2023/10/15 09:07:03;;;;;;;7.93;2.83;;;9.70;99.90;;;;;;6143088;23;20380;-74
2023/10/15 09:09:33;;;;;;;3.20;2.80;;;9.80;99.90;;;;;;6117716;23;20188;-74
2023/10/15 09:11:59;;;;;;;19.87;5.33;;;9.80;99.90;;;;;;6117718;23;20383;-75
2023/10/15 09:14:45;;;;;;;13.53;4.03;;;9.80;99.90;;;;;;6142247;23;20435;-74
2023/10/15 09:17:15;;;;;;;6.80;3.10;;;9.90;99.90;;;;;;6116255;23;20378;-75
2023/10/15 09:19:46;;;;;;;73.13;8.00;;;9.80;99.90;;;;;;6114443;23;20392;-76
2023/10/15 09:22:16;;;;;;;8.33;3.00;;;9.80;99.90;;;;;;6142179;23;20666;-75
2023/10/15 09:24:46;;;;;;;25.57;7.50;;;9.80;99.90;;;;;;6143279;23;20390;-75
2023/10/15 09:27:13;;;;;;;18.17;4.80;;;9.90;99.90;;;;;;6141931;23;20368;-73
2023/10/15 09:29:40;;;;;;;5.43;2.03;;;10.00;99.90;;;;;;6116787;23;20360;-75
2023/10/15 09:32:06;;;;;;;6.37;3.67;;;10.10;99.90;;;;;;6143361;23;20367;-75
2023/10/15 09:34:37;;;;;;;12.23;3.10;;;10.20;99.90;;;;;;6143694;23;20392;-75
2023/10/15 09:37:06;;;;;;;15.53;3.67;;;10.20;99.90;;;;;;6143468;23;20414;-75
2023/10/15 09:39:50;;;;;;;119.00;18.03;;;10.30;99.90;;;;;;6141702;23;20384;-76
2023/10/15 09:42:18;;;;;;;5.47;2.20;;;10.50;99.90;;;;;;6097157;23;20375;-75
2023/10/15 09:44:44;;;;;;;2.27;1.73;;;10.70;99.90;;;;;;6123039;23;20392;-78
2023/10/15 09:47:11;;;;;;;7.10;2.33;;;10.60;99.90;;;;;;6121460;23;20408;-76
2023/10/15 09:49:40;;;;;;;5.00;2.40;;;10.50;99.90;;;;;;6143564;23;20352;-74
2023/10/15 09:52:10;;;;;;;6.63;4.00;;;10.40;99.90;;;;;;6145494;23;20685;-75
2023/10/15 09:54:37;;;;;;;7.60;3.87;;;10.50;99.90;;;;;;6119600;23;20415;-74
2023/10/15 09:57:05;;;;;;;3.70;2.43;;;10.60;99.90;;;;;;6141825;23;20500;-74
2023/10/15 09:59:32;;;;;;;6.40;2.40;;;10.60;99.90;;;;;;6147133;23;20368;-77
2023/10/15 10:02:07;;;;;;;4.30;2.00;;;10.70;99.90;;;;;;6123769;23;20359;-76
2023/10/15 10:04:45;;;;;;;4.13;1.80;;;10.70;99.90;;;;;;6120630;23;20384;-74
2023/10/15 10:07:36;;;;;;;2.33;1.30;;;10.70;99.90;;;;;;6144570;23;20371;-74
2023/10/15 10:10:51;;;;;;;3.70;1.73;;;10.70;99.90;;;;;;6145136;23;20390;-76
2023/10/15 10:13:51;;;;;;;6.50;3.90;;;10.70;99.90;;;;;;5983276;23;20406;-76
2023/10/15 10:16:37;;;;;;;2.27;1.33;;;10.60;99.90;;;;;;6027746;23;20422;-75
2023/10/15 10:19:08;;;;;;;1.83;1.50;;;10.40;99.90;;;;;;5980328;23;20467;-77
2023/10/15 10:21:34;;;;;;;3.37;1.20;;;10.20;99.90;;;;;;6006852;23;20376;-73
2023/10/15 10:24:02;;;;;;;3.40;1.77;;;10.30;99.90;;;;;;6005172;23;20403;-76
2023/10/15 10:26:34;;;;;;;2.00;1.60;;;10.30;99.90;;;;;;6006420;23;20379;-76
2023/10/15 10:29:01;;;;;;;3.43;1.63;;;10.40;99.90;;;;;;6025960;23;20451;-74
2023/10/15 10:31:30;;;;;;;3.67;1.97;;;10.30;99.90;;;;;;6025062;23;20422;-76
2023/10/15 10:33:57;;;;;;;13.73;3.33;;;10.40;99.90;;;;;;6005264;23;20414;-72
2023/10/15 10:36:27;;;;;;;3.47;1.83;;;10.40;99.90;;;;;;6030987;23;20419;-77
2023/10/15 10:39:08;;;;;;;26.00;3.33;;;10.50;99.90;;;;;;6005622;23;20387;-75
2023/10/15 10:41:37;;;;;;;13.00;3.50;;;10.60;99.90;;;;;;6029497;23;20436;-79
2023/10/15 10:44:05;;;;;;;12.90;3.80;;;10.70;99.90;;;;;;6004987;23;20419;-78
2023/10/15 10:46:40;;;;;;;4.13;2.37;;;10.70;99.90;;;;;;6029631;23;20435;-76
2023/10/15 10:49:18;;;;;;;16.27;5.97;;;10.60;99.90;;;;;;6065853;23;20423;-75
2023/10/15 10:52:03;;;;;;;3.13;2.30;;;10.70;99.90;;;;;;6123763;23;20418;-75
2023/10/15 10:54:36;;;;;;;29.30;5.73;;;10.90;99.90;;;;;;6147240;23;20427;-75
2023/10/15 10:57:06;;;;;;;5.37;3.00;;;10.90;99.90;;;;;;6121288;23;20509;-79
2023/10/15 10:59:37;;;;;;;8.40;2.47;;;10.90;99.90;;;;;;6149190;23;20404;-76
2023/10/15 11:02:05;;;;;;;176.33;39.10;;;11.00;99.90;;;;;;6146709;23;20372;-76
2023/10/15 11:04:31;;;;;;;26.30;6.30;;;11.00;99.90;;;;;;6123292;23;20401;-75
2023/10/15 11:06:58;;;;;;;206.77;27.40;;;11.10;99.90;;;;;;6173302;23;20378;-77
2023/10/15 11:09:25;;;;;;;3.17;1.67;;;11.30;97.00;;;;;;6150562;23;20379;-77
2023/10/15 11:11:53;;;;;;;17.30;5.07;;;11.50;95.40;;;;;;6149213;23;20372;-77
2023/10/15 11:14:25;;;;;;;3.70;1.87;;;11.60;96.60;;;;;;6099101;23;20395;-76
2023/10/15 11:16:52;;;;;;;6.80;1.97;;;11.70;95.30;;;;;;6124420;23;20419;-77
2023/10/15 11:19:32;;;;;;;4.67;1.90;;;11.80;93.70;;;;;;6148556;23;20364;-76
2023/10/15 11:22:00;;;;;;;5.43;2.00;;;12.10;92.70;;;;;;6123997;23;20388;-75
2023/10/15 11:24:31;;;;;;;3.13;1.60;;;12.30;91.00;;;;;;6124319;23;20404;-77
2023/10/15 11:27:06;;;;;;;4.20;1.90;;;12.50;90.00;;;;;;6057628;23;20389;-77
2023/10/15 11:29:43;;;;;;;3.27;1.40;;;12.70;88.50;;;;;;6005230;23;20799;-76
2023/10/15 11:32:11;;;;;;;3.67;1.93;;;12.80;80.90;;;;;;5959322;24;20438;-77
2023/10/15 11:34:39;;;;;;;1.53;1.03;;;12.60;84.40;;;;;;6067619;23;20447;-78
2023/10/15 11:37:16;;;;;;;3.20;1.60;;;12.30;87.80;;;;;;6123408;23;20432;-76
2023/10/15 11:39:47;;;;;;;2.90;1.03;;;11.90;90.50;;;;;;6147908;23;20460;-76
2023/10/15 11:42:14;;;;;;;2.03;1.00;;;11.50;92.20;;;;;;6100306;23;20422;-74
2023/10/15 11:44:43;;;;;;;6.27;1.60;;;11.00;92.40;;;;;;6090244;23;20397;-76
2023/10/15 11:47:19;;;;;;;1.40;0.77;;;10.80;96.40;;;;;;6116292;23;20631;-75
2023/10/15 11:49:50;;;;;;;1.90;1.10;;;10.60;97.90;;;;;;6115139;23;20387;-77
2023/10/15 11:52:18;;;;;;;3.37;1.07;;;10.50;98.60;;;;;;6115212;23;20377;-74
2023/10/15 11:54:51;;;;;;;2.10;1.20;;;10.60;99.50;;;;;;6090642;23;20396;-75
2023/10/15 11:57:22;;;;;;;3.07;1.40;;;10.60;99.10;;;;;;6116846;23;20404;-75
2023/10/15 11:59:52;;;;;;;5.13;1.97;;;10.50;99.90;;;;;;6116076;23;20377;-76
2023/10/15 12:02:18;;;;;;;4.40;1.63;;;10.40;99.90;;;;;;6124849;23;20373;-77
2023/10/15 12:04:47;;;;;;;2.87;1.50;;;10.30;99.90;;;;;;6121717;23;20395;-76
2023/10/15 12:07:21;;;;;;;3.40;2.03;;;10.30;99.90;;;;;;6121171;23;20682;-76
2023/10/15 12:09:48;;;;;;;2.90;1.60;;;10.30;99.90;;;;;;6120017;23;20428;-76
2023/10/15 12:12:18;;;;;;;2.40;1.90;;;10.40;99.90;;;;;;6094191;23;20361;-75
2023/10/15 12:14:44;;;;;;;6.20;2.07;;;10.60;99.90;;;;;;6117854;23;20403;-76
2023/10/15 12:17:12;;;;;;;3.10;1.90;;;11.00;99.90;;;;;;6117143;23;20434;-76
2023/10/15 12:19:40;;;;;;;4.13;2.70;;;11.30;99.70;;;;;;6116590;23;20365;-75
2023/10/15 12:22:09;;;;;;;5.23;2.47;;;11.40;97.60;;;;;;6116349;23;20789;-76
2023/10/15 12:24:35;;;;;;;3.17;1.80;;;11.50;97.20;;;;;;6093784;23;20440;-77
2023/10/15 12:27:05;;;;;;;3.30;2.03;;;11.60;97.10;;;;;;6115258;23;20372;-78
2023/10/15 12:29:31;;;;;;;7.13;2.70;;;11.50;95.90;;;;;;6092805;23;20379;-75
2023/10/15 12:31:57;;;;;;;7.10;1.90;;;11.40;96.30;;;;;;6118673;23;20392;-76
2023/10/15 12:34:24;;;;;;;5.37;2.10;;;11.30;96.50;;;;;;6138199;23;20234;-77
2023/10/15 12:36:50;;;;;;;5.60;3.10;;;11.20;97.70;;;;;;6150708;23;20471;-75
2023/10/15 12:39:16;;;;;;;4.13;1.70;;;11.10;99.40;;;;;;6176959;23;20391;-78
2023/10/15 12:41:45;;;;;;;3.77;2.30;;;11.10;98.40;;;;;;6177145;23;20379;-75
2023/10/15 12:44:15;;;;;;;4.93;1.90;;;11.10;96.50;;;;;;6178105;23;20390;-75
2023/10/15 12:46:40;;;;;;;3.40;1.57;;;11.10;96.40;;;;;;6172690;23;20152;-74
2023/10/15 12:49:08;;;;;;;6.03;2.47;;;11.00;97.60;;;;;;6175058;23;20369;-77
2023/10/15 12:51:34;;;;;;;4.03;2.07;;;11.00;98.10;;;;;;6153474;23;20413;-77
2023/10/15 12:54:00;;;;;;;3.53;1.90;;;11.10;98.90;;;;;;6153598;23;20422;-77
2023/10/15 12:56:30;;;;;;;2.80;2.00;;;11.10;99.20;;;;;;6178691;23;20409;-77
2023/10/15 12:58:57;;;;;;;6.17;1.30;;;11.30;99.10;;;;;;6122393;23;20387;-75
2023/10/15 13:01:26;;;;;;;2.40;2.00;;;11.40;98.50;;;;;;6098985;23;20470;-77
2023/10/15 13:03:52;;;;;;;2.87;1.37;;;11.70;97.10;;;;;;6099655;23;20483;-78
2023/10/15 13:06:19;;;;;;;4.37;1.83;;;11.80;95.80;;;;;;6123230;23;20376;-76
2023/10/15 13:08:47;;;;;;;3.97;1.43;;;11.70;94.40;;;;;;6097553;23;20176;-76
2023/10/15 13:11:13;;;;;;;4.27;1.60;;;11.70;95.80;;;;;;6072567;23;20376;-78
2023/10/15 13:13:40;;;;;;;2.90;1.57;;;11.80;95.90;;;;;;6121676;23;20428;-78
2023/10/15 13:16:08;;;;;;;3.90;1.73;;;11.90;95.50;;;;;;6123648;23;20431;-77
2023/10/15 13:18:38;;;;;;;3.20;1.70;;;12.00;94.10;;;;;;6148940;23;20396;-76